createdAt,value
2019-05-06T00:00:26.739Z,4.13
2019-05-06T00:02:55.607Z,4.50
2019-05-06T00:05:25.556Z,4.30
2019-05-06T00:07:54.971Z,5.03
2019-05-06T00:10:29.278Z,5.47
2019-05-06T00:12:58.861Z,5.13
2019-05-06T00:15:28.243Z,6.13
2019-05-06T00:17:57.392Z,5.37
2019-05-06T00:20:26.683Z,5.37
2019-05-06T00:22:59.778Z,4.80
2019-05-06T00:25:36.737Z,5.37
2019-05-06T00:28:24.452Z,4.60
2019-05-06T00:31:08.617Z,4.50
2019-05-06T00:33:25.734Z,5.37
2019-05-06T00:35:54.917Z,4.47
2019-05-06T00:38:24.654Z,4.20
2019-05-06T00:40:57.315Z,3.97
2019-05-06T00:43:26.252Z,4.50
2019-05-06T00:45:55.122Z,5.10
2019-05-06T00:48:24.485Z,4.23
2019-05-06T00:50:53.732Z,4.53
2019-05-06T00:53:24.918Z,4.93
2019-05-06T00:55:54.044Z,5.40
2019-05-06T00:58:23.886Z,5.03
2019-05-06T01:00:53.964Z,5.17
2019-05-06T01:03:23.829Z,4.30
2019-05-06T01:05:54.212Z,4.17
2019-05-06T01:08:24.123Z,5.13
2019-05-06T01:10:54.468Z,4.83
2019-05-06T01:13:30.399Z,5.27
2019-05-06T01:15:59.527Z,4.87
2019-05-06T01:18:28.626Z,4.77
2019-05-06T01:21:10.073Z,5.20
2019-05-06T01:23:43.752Z,5.47
2019-05-06T01:26:14.989Z,4.70
2019-05-06T01:28:45.336Z,6.50
2019-05-06T01:31:14.944Z,5.10
2019-05-06T01:33:45.289Z,4.73
2019-05-06T01:36:15.157Z,4.90
2019-05-06T01:38:54.685Z,5.30
2019-05-06T01:41:49.113Z,4.97
2019-05-06T01:44:18.489Z,6.13
2019-05-06T01:46:47.831Z,6.20
2019-05-06T01:49:16.851Z,4.93
2019-05-06T01:51:45.903Z,6.53
2019-05-06T01:54:14.867Z,5.60
2019-05-06T01:56:44.390Z,6.20
2019-05-06T01:59:14.157Z,7.03
2019-05-06T02:01:56.427Z,8.10
2019-05-06T02:04:14.155Z,6.83
2019-05-06T02:06:43.864Z,6.97
2019-05-06T02:09:15.889Z,6.60
2019-05-06T02:11:47.756Z,6.40
2019-05-06T02:14:16.970Z,7.33
2019-05-06T02:16:46.526Z,5.83
2019-05-06T02:19:15.617Z,5.43
2019-05-06T02:22:09.801Z,6.47
2019-05-06T02:25:04.600Z,6.20
2019-05-06T02:27:34.184Z,6.17
2019-05-06T02:30:15.298Z,8.00
2019-05-06T02:33:15.155Z,6.50
2019-05-06T02:35:55.135Z,6.73
2019-05-06T02:38:33.279Z,6.40
2019-05-06T02:40:57.142Z,5.87
2019-05-06T02:43:26.188Z,6.27
2019-05-06T02:45:55.493Z,6.90
2019-05-06T02:48:38.334Z,6.33
2019-05-06T02:51:13.134Z,6.63
2019-05-06T02:53:42.897Z,8.60
2019-05-06T02:56:13.377Z,7.77
2019-05-06T02:58:43.747Z,8.33
2019-05-06T03:01:13.588Z,6.80
2019-05-06T03:03:43.561Z,7.70
2019-05-06T03:06:13.321Z,8.70
2019-05-06T03:08:43.380Z,8.33
2019-05-06T03:11:13.847Z,8.13
2019-05-06T03:13:43.978Z,6.93
2019-05-06T03:16:14.248Z,7.17
2019-05-06T03:18:43.706Z,7.83
2019-05-06T03:21:37.548Z,8.30
2019-05-06T03:24:24.733Z,8.20
2019-05-06T03:26:56.933Z,7.53
2019-05-06T03:29:25.564Z,8.50
2019-05-06T03:31:56.505Z,8.73
2019-05-06T03:34:48.941Z,7.63
2019-05-06T03:36:57.137Z,7.80
2019-05-06T03:39:26.334Z,8.07
2019-05-06T03:41:55.353Z,8.80
2019-05-06T03:44:24.524Z,8.70
2019-05-06T03:47:13.960Z,8.30
2019-05-06T03:49:49.775Z,10.90
2019-05-06T03:52:16.653Z,9.43
2019-05-06T03:54:47.265Z,8.70
2019-05-06T03:57:17.960Z,8.57
2019-05-06T03:59:48.822Z,8.00
2019-05-06T04:02:18.428Z,7.43
2019-05-06T04:04:47.437Z,10.03
2019-05-06T04:07:16.569Z,8.27
2019-05-06T04:09:45.779Z,7.40
2019-05-06T04:12:16.266Z,7.50
2019-05-06T04:14:45.644Z,8.50
2019-05-06T04:17:49.224Z,7.83
2019-05-06T04:20:47.075Z,6.63
2019-05-06T04:23:27.607Z,7.90
2019-05-06T04:26:24.755Z,7.80
2019-05-06T04:28:54.138Z,9.30
2019-05-06T04:31:23.617Z,7.93
2019-05-06T04:34:08.409Z,8.40
2019-05-06T04:36:25.107Z,7.83
2019-05-06T04:38:54.434Z,7.40
2019-05-06T04:41:26.778Z,7.37
2019-05-06T04:43:54.382Z,8.70
2019-05-06T04:46:23.797Z,6.97
2019-05-06T04:48:53.887Z,8.20
2019-05-06T04:51:24.697Z,6.90
2019-05-06T04:53:54.579Z,7.60
2019-05-06T04:56:23.964Z,7.27
2019-05-06T04:58:54.006Z,6.97
2019-05-06T05:01:23.633Z,7.93
2019-05-06T05:03:54.094Z,7.20
2019-05-06T05:06:23.490Z,7.70
2019-05-06T05:08:53.980Z,8.53
2019-05-06T05:11:47.566Z,8.47
2019-05-06T05:14:25.609Z,8.07
2019-05-06T05:17:02.214Z,7.77
2019-05-06T05:19:32.792Z,9.30
2019-05-06T05:22:08.166Z,7.80
2019-05-06T05:24:37.989Z,8.07
2019-05-06T05:27:07.473Z,7.20
2019-05-06T05:29:36.721Z,8.40
2019-05-06T05:32:05.872Z,6.57
2019-05-06T05:34:39.927Z,8.70
2019-05-06T05:37:05.794Z,8.90
2019-05-06T05:39:35.308Z,7.90
2019-05-06T05:42:13.769Z,9.40
2019-05-06T05:44:43.740Z,8.40
2019-05-06T05:47:12.963Z,8.43
2019-05-06T05:50:04.513Z,8.50
2019-05-06T05:52:34.241Z,8.77
2019-05-06T05:55:03.896Z,9.57
2019-05-06T05:57:32.979Z,8.17
2019-05-06T06:00:03.944Z,7.80
2019-05-06T06:02:33.419Z,11.20
2019-05-06T06:05:02.861Z,8.10
2019-05-06T06:07:32.922Z,9.70
2019-05-06T06:10:12.890Z,9.40
2019-05-06T06:12:42.907Z,9.07
2019-05-06T06:15:42.342Z,9.60
2019-05-06T06:18:36.991Z,9.73
2019-05-06T06:21:37.259Z,8.60
2019-05-06T06:24:13.106Z,10.70
2019-05-06T06:26:43.045Z,12.30
2019-05-06T06:29:12.654Z,10.70
2019-05-06T06:32:09.836Z,12.87
2019-05-06T06:34:47.940Z,14.20
2019-05-06T06:37:42.726Z,11.33
2019-05-06T06:40:13.471Z,9.67
2019-05-06T06:42:42.835Z,11.63
2019-05-06T06:45:12.349Z,10.67
2019-05-06T06:47:43.343Z,9.90
2019-05-06T06:50:12.620Z,9.70
2019-05-06T06:52:43.043Z,11.60
2019-05-06T06:55:13.065Z,11.07
2019-05-06T06:58:02.788Z,9.30
2019-05-06T07:00:44.614Z,9.17
2019-05-06T07:03:33.700Z,10.60
2019-05-06T07:06:13.263Z,9.67
2019-05-06T07:08:42.668Z,9.07
2019-05-06T07:11:13.043Z,8.33
2019-05-06T07:16:26.255Z,11.27
2019-05-06T07:18:55.159Z,10.43
2019-05-06T07:21:46.994Z,10.00
2019-05-06T07:24:16.519Z,9.93
2019-05-06T07:26:56.704Z,10.00
2019-05-06T07:29:26.939Z,9.23
2019-05-06T07:31:56.178Z,9.47
2019-05-06T07:34:25.302Z,10.67
2019-05-06T07:36:54.175Z,12.13
2019-05-06T07:39:24.006Z,9.10
2019-05-06T07:41:58.025Z,10.43
2019-05-06T07:44:42.703Z,10.33
2019-05-06T07:47:23.784Z,10.97
2019-05-06T07:49:53.094Z,10.50
2019-05-06T07:52:23.041Z,8.77
2019-05-06T07:54:53.455Z,8.87
2019-05-06T07:57:22.986Z,8.37
2019-05-06T07:59:52.631Z,9.50
2019-05-06T08:02:22.903Z,9.77
2019-05-06T08:04:53.129Z,9.33
2019-05-06T08:07:22.512Z,10.03
2019-05-06T08:09:53.004Z,8.00
2019-05-06T08:12:22.456Z,11.43
2019-05-06T08:14:52.487Z,10.10
2019-05-06T08:17:34.660Z,10.30
2019-05-06T08:23:02.097Z,8.67
2019-05-06T08:25:42.504Z,8.73
2019-05-06T08:28:13.234Z,8.50
2019-05-06T08:30:43.107Z,8.30
2019-05-06T08:33:12.976Z,8.10
2019-05-06T08:35:42.691Z,8.03
2019-05-06T08:38:12.312Z,8.50
2019-05-06T08:40:43.076Z,5.67
2019-05-06T08:43:13.148Z,6.20
2019-05-06T08:45:42.452Z,5.80
2019-05-06T08:48:13.029Z,5.53
2019-05-06T08:51:02.772Z,5.60
2019-05-06T08:54:06.496Z,6.70
2019-05-06T08:56:35.449Z,5.90
2019-05-06T08:59:04.888Z,5.50
2019-05-06T09:01:50.588Z,5.37
2019-05-06T09:04:19.436Z,5.50
2019-05-06T09:06:48.403Z,4.90
2019-05-06T09:09:19.635Z,6.50
2019-05-06T09:11:48.884Z,5.90
2019-05-06T09:14:18.316Z,6.87
2019-05-06T09:16:50.489Z,5.63
2019-05-06T09:19:20.195Z,5.83
2019-05-06T09:21:49.030Z,4.77
2019-05-06T09:24:18.399Z,6.20
2019-05-06T09:26:55.894Z,4.20
2019-05-06T09:29:32.593Z,6.13
2019-05-06T09:32:06.727Z,6.47
2019-05-06T09:34:43.136Z,6.13
2019-05-06T09:37:14.113Z,6.17
2019-05-06T09:39:44.640Z,7.53
2019-05-06T09:42:14.010Z,7.83
2019-05-06T09:44:44.318Z,7.93
2019-05-06T09:47:22.972Z,7.77
2019-05-06T09:49:53.050Z,7.77
2019-05-06T09:52:23.110Z,6.70
2019-05-06T09:54:58.592Z,7.70
2019-05-06T09:57:32.927Z,8.80
2019-05-06T10:00:04.598Z,8.00
2019-05-06T10:02:32.822Z,8.03
2019-05-06T10:05:03.575Z,7.73
2019-05-06T10:07:33.906Z,7.90
2019-05-06T10:10:03.560Z,8.50
2019-05-06T10:12:32.962Z,9.10
2019-05-06T10:15:03.273Z,7.83
2019-05-06T10:17:32.727Z,9.70
2019-05-06T10:20:02.869Z,7.80
2019-05-06T10:22:32.577Z,8.50
2019-05-06T10:25:03.753Z,8.70
2019-05-06T10:27:33.167Z,9.40
2019-05-06T10:30:05.935Z,8.87
2019-05-06T10:32:45.091Z,9.13
2019-05-06T10:35:14.402Z,9.43
2019-05-06T10:38:13.014Z,10.47
2019-05-06T10:41:00.094Z,9.33
2019-05-06T10:43:28.352Z,9.23
2019-05-06T10:46:04.082Z,10.17
2019-05-06T10:48:32.713Z,8.23
2019-05-06T10:51:13.076Z,9.63
2019-05-06T10:53:42.460Z,8.57
2019-05-06T10:56:32.270Z,9.03
2019-05-06T10:59:02.420Z,8.90
2019-05-06T11:01:35.513Z,8.30
2019-05-06T11:04:07.403Z,7.70
2019-05-06T11:06:36.323Z,7.33
2019-05-06T11:09:08.371Z,7.53
2019-05-06T11:11:38.631Z,8.30
2019-05-06T11:14:08.023Z,7.40
2019-05-06T11:16:37.340Z,8.30
2019-05-06T11:19:06.548Z,7.30
2019-05-06T11:21:35.563Z,7.80
2019-05-06T11:24:06.277Z,7.40
2019-05-06T11:26:35.357Z,8.60
2019-05-06T11:29:12.343Z,7.57
2019-05-06T11:31:49.632Z,8.80
2019-05-06T11:34:36.715Z,7.70
2019-05-06T11:37:24.743Z,9.10
2019-05-06T11:39:53.903Z,7.30
2019-05-06T11:42:29.037Z,6.47
2019-05-06T11:44:53.565Z,7.17
2019-05-06T11:47:23.279Z,7.87
2019-05-06T11:49:56.355Z,6.30
2019-05-06T11:52:25.756Z,7.07
2019-05-06T11:54:54.771Z,7.50
2019-05-06T11:57:23.698Z,7.57
2019-05-06T11:59:52.971Z,6.27
2019-05-06T12:02:23.226Z,7.40
2019-05-06T12:04:52.797Z,8.97
2019-05-06T12:07:24.481Z,6.60
2019-05-06T12:09:53.939Z,7.13
2019-05-06T12:12:24.806Z,8.27
2019-05-06T12:14:53.826Z,7.13
2019-05-06T12:17:23.006Z,6.40
2019-05-06T12:20:13.064Z,6.70
2019-05-06T12:22:45.543Z,7.27
2019-05-06T12:25:15.725Z,6.67
2019-05-06T12:27:45.052Z,5.80
2019-05-06T12:30:22.891Z,6.57
2019-05-06T12:33:23.036Z,6.07
2019-05-06T12:35:52.322Z,5.30
2019-05-06T12:39:00.101Z,7.10
2019-05-06T12:41:29.242Z,4.70
2019-05-06T12:43:58.766Z,5.60
2019-05-06T12:46:33.833Z,5.73
2019-05-06T12:49:03.328Z,5.13
2019-05-06T12:51:32.586Z,5.05
2019-05-06T12:54:03.535Z,6.20
2019-05-06T12:56:33.633Z,4.83
2019-05-06T12:59:02.752Z,5.50
2019-05-06T13:01:33.949Z,5.93
2019-05-06T13:04:04.655Z,5.87
2019-05-06T13:06:37.260Z,5.80
2019-05-06T13:09:07.351Z,5.67
2019-05-06T13:11:37.042Z,6.60
2019-05-06T13:14:06.796Z,6.30
2019-05-06T13:16:35.939Z,6.50
2019-05-06T13:19:05.154Z,6.13
2019-05-06T13:21:35.798Z,6.22
2019-05-06T13:24:06.341Z,6.03
2019-05-06T13:26:36.949Z,6.00
2019-05-06T13:29:13.021Z,6.17
2019-05-06T13:31:43.675Z,6.58
2019-05-06T13:34:20.434Z,7.30
2019-05-06T13:36:53.172Z,7.00
2019-05-06T13:39:24.004Z,6.33
2019-05-06T13:41:53.074Z,6.77
2019-05-06T13:44:22.991Z,8.40
2019-05-06T13:46:55.991Z,9.57
2019-05-06T13:49:31.225Z,8.10
2019-05-06T13:52:04.441Z,7.30
2019-05-06T13:54:34.252Z,8.63
2019-05-06T13:57:03.646Z,7.57
2019-05-06T13:59:35.131Z,7.87
2019-05-06T14:02:21.523Z,7.17
2019-05-06T14:04:52.745Z,8.10
2019-05-06T14:07:24.390Z,7.80
2019-05-06T14:09:53.645Z,8.70
2019-05-06T14:12:23.024Z,8.00
2019-05-06T14:14:52.830Z,8.60
2019-05-06T14:17:22.594Z,7.47
2019-05-06T14:19:53.383Z,7.20
2019-05-06T14:22:23.362Z,8.20
2019-05-06T14:25:02.647Z,10.07
2019-05-06T14:27:32.864Z,8.33
2019-05-06T14:30:11.704Z,8.30
2019-05-06T14:32:43.179Z,6.67
2019-05-06T14:35:12.800Z,6.53
2019-05-06T14:37:42.229Z,8.33
2019-05-06T14:40:14.176Z,7.53
2019-05-06T14:42:43.299Z,7.77
2019-05-06T14:45:14.779Z,8.70
2019-05-06T14:47:44.041Z,5.60
2019-05-06T14:50:15.043Z,8.30
2019-05-06T14:52:44.344Z,7.60
2019-05-06T14:55:22.578Z,9.40
2019-05-06T14:57:53.466Z,9.30
2019-05-06T15:00:23.308Z,7.50
2019-05-06T15:02:53.430Z,7.70
2019-05-06T15:05:23.089Z,12.57
2019-05-06T15:07:52.894Z,8.13
2019-05-06T15:10:26.179Z,7.30
2019-05-06T15:12:53.721Z,8.47
2019-05-06T15:15:23.034Z,7.20
2019-05-06T15:17:53.309Z,8.10
2019-05-06T15:20:22.746Z,7.90
2019-05-06T15:22:52.975Z,7.90
2019-05-06T15:25:22.431Z,7.73
2019-05-06T15:27:53.206Z,9.57
2019-05-06T15:30:33.496Z,7.83
2019-05-06T15:33:02.510Z,7.97
2019-05-06T15:35:41.856Z,8.80
2019-05-06T15:38:16.501Z,8.67
2019-05-06T15:40:46.006Z,8.30
2019-05-06T15:43:15.014Z,8.70
2019-05-06T15:45:44.057Z,6.60
2019-05-06T15:48:13.696Z,6.60
2019-05-06T15:50:45.643Z,7.53
2019-05-06T15:53:13.689Z,8.10
2019-05-06T15:55:43.667Z,8.97
2019-05-06T15:58:14.058Z,10.20
2019-05-06T16:00:43.169Z,9.83
2019-05-06T16:03:13.182Z,10.73
2019-05-06T16:05:43.648Z,12.60
2019-05-06T16:08:13.460Z,13.97
2019-05-06T16:10:51.935Z,13.73
2019-05-06T16:13:13.432Z,12.93
2019-05-06T16:15:42.761Z,14.30
2019-05-06T16:18:12.984Z,13.47
2019-05-06T16:20:42.655Z,13.57
2019-05-06T16:23:30.022Z,14.20
2019-05-06T16:25:59.179Z,13.10
2019-05-06T16:28:28.180Z,13.27
2019-05-06T16:30:57.237Z,11.47
2019-05-06T16:33:26.463Z,15.10
2019-05-06T16:35:55.520Z,12.90
2019-05-06T16:38:24.850Z,15.43
2019-05-06T16:41:09.106Z,13.33
2019-05-06T16:43:25.186Z,14.47
2019-05-06T16:45:54.314Z,14.80
2019-05-06T16:48:23.512Z,13.73
2019-05-06T16:50:53.050Z,14.53
2019-05-06T16:53:22.949Z,14.33
2019-05-06T16:56:09.676Z,13.90
2019-05-06T16:58:44.057Z,14.33
2019-05-06T17:01:15.138Z,13.90
2019-05-06T17:03:52.730Z,13.33
2019-05-06T17:06:24.426Z,14.60
2019-05-06T17:08:53.528Z,15.53
2019-05-06T17:11:30.589Z,14.37
2019-05-06T17:13:54.193Z,17.63
2019-05-06T17:16:23.208Z,12.63
2019-05-06T17:18:56.424Z,12.90
2019-05-06T17:21:23.360Z,13.17
2019-05-06T17:23:52.471Z,12.77
2019-05-06T17:26:22.464Z,15.40
2019-05-06T17:29:02.720Z,14.00
2019-05-06T17:31:56.866Z,16.20
2019-05-06T17:34:32.186Z,14.77
2019-05-06T17:37:07.725Z,16.07
2019-05-06T17:39:36.727Z,14.97
2019-05-06T17:42:05.898Z,13.40
2019-05-06T17:44:34.994Z,14.00
2019-05-06T17:47:14.611Z,14.13
2019-05-06T17:49:44.241Z,14.40
2019-05-06T17:52:19.310Z,14.10
2019-05-06T17:54:48.548Z,13.20
2019-05-06T17:57:17.573Z,14.37
2019-05-06T17:59:46.724Z,28.60
2019-05-06T18:02:19.321Z,15.90
2019-05-06T18:04:48.803Z,13.20
2019-05-06T18:07:17.725Z,12.20
2019-05-06T18:09:46.844Z,13.67
2019-05-06T18:12:15.978Z,14.07
2019-05-06T18:14:45.390Z,14.20
2019-05-06T18:17:14.400Z,14.73
2019-05-06T18:19:43.492Z,14.90
2019-05-06T18:22:13.138Z,14.57
2019-05-06T18:24:42.231Z,15.43
2019-05-06T18:27:13.157Z,12.93
2019-05-06T18:29:42.735Z,13.70
2019-05-06T18:32:12.642Z,13.67
2019-05-06T18:34:42.137Z,11.90
2019-05-06T18:37:30.169Z,11.77
2019-05-06T18:39:59.276Z,12.87
2019-05-06T18:42:28.186Z,11.20
2019-05-06T18:44:57.525Z,11.97
2019-05-06T18:47:26.361Z,9.60
2019-05-06T18:49:56.664Z,8.77
2019-05-06T18:52:25.627Z,8.93
2019-05-06T18:54:54.529Z,8.30
2019-05-06T18:57:23.661Z,10.20
2019-05-06T18:59:53.274Z,13.47
2019-05-06T19:02:23.009Z,12.43
2019-05-06T19:04:57.518Z,11.00
2019-05-06T19:07:26.583Z,10.57
2019-05-06T19:10:13.203Z,11.43
2019-05-06T19:12:42.529Z,11.57
2019-05-06T19:15:12.628Z,10.97
2019-05-06T19:17:44.155Z,11.60
2019-05-06T19:20:14.093Z,12.27
2019-05-06T19:22:43.600Z,11.70
2019-05-06T19:25:14.623Z,10.70
2019-05-06T19:27:43.711Z,11.53
2019-05-06T19:30:13.383Z,11.40
2019-05-06T19:32:43.410Z,12.00
2019-05-06T19:35:13.952Z,10.67
2019-05-06T19:37:42.874Z,10.93
2019-05-06T19:40:12.315Z,11.90
2019-05-06T19:42:47.127Z,11.43
2019-05-06T19:45:16.563Z,11.47
2019-05-06T19:47:46.032Z,11.90
2019-05-06T19:50:15.569Z,10.50
2019-05-06T19:52:44.637Z,10.00
2019-05-06T19:55:13.912Z,10.30
2019-05-06T19:57:43.175Z,10.73
2019-05-06T20:00:12.975Z,11.60
2019-05-06T20:02:42.990Z,11.37
2019-05-06T20:05:23.723Z,11.27
2019-05-06T20:08:12.524Z,11.07
2019-05-06T20:10:52.858Z,10.40
2019-05-06T20:13:23.163Z,10.40
2019-05-06T20:15:52.360Z,10.30
2019-05-06T20:18:21.389Z,11.47
2019-05-06T20:20:52.663Z,12.03
2019-05-06T20:23:23.058Z,10.83
2019-05-06T20:25:52.734Z,11.17
2019-05-06T20:28:22.764Z,10.90
2019-05-06T20:30:52.869Z,11.47
2019-05-06T20:33:22.187Z,12.17
2019-05-06T20:35:52.615Z,11.27
2019-05-06T20:38:23.210Z,11.73
2019-05-06T20:40:52.486Z,11.17
2019-05-06T20:43:23.914Z,11.47
2019-05-06T20:45:52.318Z,11.87
2019-05-06T20:48:23.558Z,12.57
2019-05-06T20:50:52.989Z,11.40
2019-05-06T20:53:23.191Z,12.00
2019-05-06T20:55:53.194Z,12.07
2019-05-06T20:58:23.011Z,13.37
2019-05-06T21:00:52.283Z,11.77
2019-05-06T21:03:22.168Z,12.67
2019-05-06T21:05:52.056Z,11.67
2019-05-06T21:08:22.072Z,12.37
2019-05-06T21:10:52.906Z,13.43
2019-05-06T21:13:31.475Z,11.27
2019-05-06T21:15:53.151Z,12.70
2019-05-06T21:18:22.902Z,12.20
2019-05-06T21:20:52.097Z,12.90
2019-05-06T21:23:22.732Z,10.70
2019-05-06T21:25:52.431Z,11.20
2019-05-06T21:28:23.603Z,12.80
2019-05-06T21:30:52.312Z,12.60
2019-05-06T21:33:22.132Z,13.33
2019-05-06T21:35:52.279Z,13.07
2019-05-06T21:38:22.728Z,12.70
2019-05-06T21:40:52.690Z,12.13
2019-05-06T21:43:22.714Z,12.77
2019-05-06T21:45:53.938Z,11.83
2019-05-06T21:48:22.412Z,12.73
2019-05-06T21:50:52.231Z,12.10
2019-05-06T21:53:23.045Z,12.93
2019-05-06T21:55:52.490Z,13.00
2019-05-06T21:58:23.145Z,13.23
2019-05-06T22:01:04.896Z,12.07
2019-05-06T22:03:34.067Z,12.03
2019-05-06T22:06:03.092Z,12.97
2019-05-06T22:08:32.814Z,12.90
2019-05-06T22:11:02.961Z,12.43
2019-05-06T22:13:33.503Z,13.33
2019-05-06T22:16:04.746Z,13.47
2019-05-06T22:18:33.160Z,12.90
2019-05-06T22:21:33.200Z,12.97
2019-05-06T22:24:04.725Z,13.70
2019-05-06T22:26:34.037Z,11.23
2019-05-06T22:29:02.913Z,12.10
2019-05-06T22:31:33.088Z,13.53
2019-05-06T22:34:02.198Z,13.00
2019-05-06T22:36:32.302Z,13.77
2019-05-06T22:39:02.705Z,14.87
2019-05-06T22:41:32.716Z,14.20
2019-05-06T22:44:13.010Z,14.73
2019-05-06T22:46:32.997Z,14.03
2019-05-06T22:49:02.559Z,13.03
2019-05-06T22:51:32.432Z,16.10
2019-05-06T22:54:02.755Z,14.50
2019-05-06T22:56:32.514Z,15.53
2019-05-06T22:59:03.341Z,14.23
2019-05-06T23:01:54.298Z,14.47
2019-05-06T23:04:24.509Z,13.73
2019-05-06T23:06:54.383Z,14.17
2019-05-06T23:09:25.014Z,13.47
2019-05-06T23:11:54.005Z,14.70
2019-05-06T23:14:31.095Z,13.80
2019-05-06T23:16:53.507Z,13.53
2019-05-06T23:19:24.441Z,15.73
2019-05-06T23:21:53.404Z,14.43
2019-05-06T23:24:23.104Z,14.97
2019-05-06T23:26:52.722Z,14.53
2019-05-06T23:29:23.027Z,15.00
2019-05-06T23:31:52.485Z,15.00
2019-05-06T23:34:23.145Z,15.67
2019-05-06T23:37:28.716Z,15.20
2019-05-06T23:40:42.818Z,15.43
2019-05-06T23:43:47.798Z,16.90
2019-05-06T23:46:53.156Z,15.37
2019-05-06T23:49:58.808Z,17.50
2019-05-06T23:53:03.692Z,15.70
2019-05-06T23:56:08.762Z,17.27
2019-05-06T23:58:38.482Z,14.93
